Time,TemperatureF,DewpointF,PressureIn,WindDirection,WindDirectionDegrees,WindSpeedMPH,WindSpeedGustMPH,Humidity,HourlyPrecipIn,Conditions,Clouds,dailyrainin,SoftwareType,DateUTC
2013-01-05 00:00:00,70.9,67.1,30.24,North,0,3.8,3.8,88,0.00,CLR,,0.00,WeatherDisplay:10.37,2013-01-05 05:00:00,
2013-01-05 00:01:00,70.9,67.1,30.24,NW,315,3.8,3.8,88,0.00,CLR,,0.00,WeatherDisplay:10.37,2013-01-05 05:01:00,
2013-01-05 00:07:00,70.5,66.8,30.24,North,0,5.9,5.9,88,0.00,CLR,,0.00,WeatherDisplay:10.37,2013-01-05 05:07:00,
2013-01-05 00:12:00,70.5,66.8,30.24,NNW,338,4.6,4.6,88,0.00,CLR,,0.00,WeatherDisplay:10.37,2013-01-05 05:12:00,
2013-01-05 00:17:00,70.5,66.8,30.24,North,0,2.4,2.4,88,0.00,CLR,,0.00,WeatherDisplay:10.37,2013-01-05 05:17:00,
2013-01-05 00:22:00,70.3,66.9,30.24,North,0,3.5,3.5,89,0.00,CLR,,0.00,WeatherDisplay:10.37,2013-01-05 05:22:00,
2013-01-05 00:27:00,70.3,66.9,30.24,NNW,338,3.5,3.5,89,0.00,CLR,,0.00,WeatherDisplay:10.37,2013-01-05 05:27:00,
2013-01-05 00:32:00,70.2,66.8,30.21,North,0,4.6,4.6,89,0.00,CLR,,0.00,WeatherDisplay:10.37,2013-01-05 05:32:00,
2013-01-05 00:37:00,70.2,66.8,30.21,North,0,3.6,3.6,89,0.00,CLR,,0.00,WeatherDisplay:10.37,2013-01-05 05:37:00,
2013-01-05 00:42:00,70.2,66.8,30.21,North,0,3.5,3.5,89,0.00,CLR,,0.00,WeatherDisplay:10.37,2013-01-05 05:42:00,
2013-01-05 00:48:00,70.2,66.8,30.21,WNW,292,2.3,2.3,89,0.00,CLR,,0.00,WeatherDisplay:10.37,2013-01-05 05:48:00,
2013-01-05 00:53:00,70.2,66.8,30.21,NW,315,2.4,0.0,89,0.00,CLR,,0.00,WeatherDisplay:10.37,2013-01-05 05:53:00,
2013-01-05 00:58:00,70.2,66.8,30.21,WNW,292,2.3,2.3,89,0.00,CLR,,0.00,WeatherDisplay:10.37,2013-01-05 05:58:00,
2013-01-05 01:03:00,70.0,66.6,30.21,WNW,292,3.5,3.5,89,0.00,CLR,,0.00,WeatherDisplay:10.37,2013-01-05 06:03:00,
2013-01-05 01:08:00,69.8,66.4,30.21,North,0,5.4,5.4,89,0.00,CLR,,0.00,WeatherDisplay:10.37,2013-01-05 06:08:00,
2013-01-05 01:13:00,69.8,66.4,30.21,NNE,22,3.5,3.5,89,0.00,CLR,,0.00,WeatherDisplay:10.37,2013-01-05 06:13:00,
2013-01-05 01:19:00,69.6,66.6,30.21,WNW,292,3.5,3.5,90,0.00,CLR,,0.00,WeatherDisplay:10.37,2013-01-05 06:19:00,
2013-01-05 01:24:00,69.6,66.6,30.21,NNW,338,4.6,4.6,90,0.00,CLR,,0.00,WeatherDisplay:10.37,2013-01-05 06:24:00,
2013-01-05 01:29:00,69.6,66.6,30.21,West,270,4.6,4.6,90,0.00,CLR,,0.00,WeatherDisplay:10.37,2013-01-05 06:29:00,
2013-01-05 01:34:00,69.6,66.6,30.18,North,0,2.3,2.3,90,0.00,CLR,,0.00,WeatherDisplay:10.37,2013-01-05 06:34:00,
2013-01-05 01:39:00,69.8,66.7,30.18,NW,315,3.1,3.1,90,0.00,CLR,,0.00,WeatherDisplay:10.37,2013-01-05 06:39:00,
2013-01-05 01:44:00,69.6,66.6,30.18,NW,315,4.6,4.6,90,0.00,CLR,,0.00,WeatherDisplay:10.37,2013-01-05 06:44:00,
2013-01-05 01:49:00,69.8,66.7,30.18,NNW,338,2.3,2.3,90,0.00,CLR,,0.00,WeatherDisplay:10.37,2013-01-05 06:49:00,
2013-01-05 01:54:00,69.6,66.6,30.18,North,0,3.5,3.5,90,0.00,CLR,,0.00,WeatherDisplay:10.37,2013-01-05 06:54:00,
2013-01-05 02:00:00,69.4,66.4,30.18,North,0,5.8,5.8,90,0.00,CLR,,0.00,WeatherDisplay:10.37,2013-01-05 07:00:00,
2013-01-05 02:05:00,69.4,66.4,30.21,NW,315,5.8,5.8,90,0.00,CLR,,0.00,WeatherDisplay:10.37,2013-01-05 07:05:00,
2013-01-05 02:10:00,69.4,66.4,30.21,NNW,339,5.0,6.0,90,0.00,CLR,,0.00,WeatherDisplay:10.37,2013-01-05 07:10:00,
2013-01-05 02:15:00,69.3,66.2,30.21,NW,315,3.8,3.8,90,0.00,CLR,,0.00,WeatherDisplay:10.37,2013-01-05 07:15:00,
2013-01-05 02:20:00,69.1,66.0,30.18,North,0,6.0,6.0,90,0.00,CLR,,0.00,WeatherDisplay:10.37,2013-01-05 07:20:00,
2013-01-05 02:25:00,69.1,66.0,30.18,NNW,338,4.6,4.6,90,0.00,CLR,,0.00,WeatherDisplay:10.37,2013-01-05 07:25:00,
2013-01-05 02:31:00,69.1,66.0,30.18,NNW,338,4.6,4.6,90,0.00,CLR,,0.00,WeatherDisplay:10.37,2013-01-05 07:31:00,
2013-01-05 02:36:00,69.1,66.3,30.18,NNW,338,5.8,5.8,91,0.00,CLR,,0.00,WeatherDisplay:10.37,2013-01-05 07:36:00,
2013-01-05 02:41:00,69.1,66.3,30.21,NW,315,4.6,4.6,91,0.00,CLR,,0.00,WeatherDisplay:10.37,2013-01-05 07:41:00,
2013-01-05 02:46:00,69.1,66.3,30.21,North,0,3.5,3.5,91,0.00,CLR,,0.00,WeatherDisplay:10.37,2013-01-05 07:46:00,
2013-01-05 02:51:00,69.1,66.3,30.21,NW,315,3.5,3.5,91,0.00,CLR,,0.00,WeatherDisplay:10.37,2013-01-05 07:51:00,
2013-01-05 02:56:00,69.1,66.3,30.21,NW,315,5.8,5.8,91,0.00,CLR,,0.00,WeatherDisplay:10.37,2013-01-05 07:56:00,
2013-01-05 03:01:00,69.1,66.3,30.18,NW,315,4.6,4.6,91,0.00,CLR,,0.00,WeatherDisplay:10.37,2013-01-05 08:01:00,
2013-01-05 03:06:00,69.1,66.3,30.18,North,0,3.5,3.5,91,0.00,CLR,,0.00,WeatherDisplay:10.37,2013-01-05 08:06:00,
2013-01-05 03:11:00,68.9,66.2,30.18,NW,315,3.5,3.5,91,0.00,CLR,,0.00,WeatherDisplay:10.37,2013-01-05 08:11:00,
2013-01-05 03:16:00,68.7,66.0,30.21,WNW,292,5.8,5.8,91,0.00,CLR,,0.00,WeatherDisplay:10.37,2013-01-05 08:16:00,
2013-01-05 03:21:00,68.7,66.0,30.21,NW,315,4.6,4.6,91,0.00,CLR,,0.00,WeatherDisplay:10.37,2013-01-05 08:21:00,
2013-01-05 03:26:00,68.7,66.0,30.21,NNW,338,4.6,4.6,91,0.00,CLR,,0.00,WeatherDisplay:10.37,2013-01-05 08:26:00,
2013-01-05 03:31:00,68.7,66.0,30.21,NNW,338,4.6,4.6,91,0.00,CLR,,0.00,WeatherDisplay:10.37,2013-01-05 08:31:00,
2013-01-05 03:36:00,68.7,66.0,30.21,NW,315,4.0,4.0,91,0.00,CLR,,0.00,WeatherDisplay:10.37,2013-01-05 08:36:00,
2013-01-05 03:41:00,68.5,65.8,30.21,WNW,292,4.6,4.6,91,0.00,CLR,,0.00,WeatherDisplay:10.37,2013-01-05 08:41:00,
2013-01-05 03:46:00,68.5,65.8,30.18,NW,315,4.6,4.6,91,0.00,CLR,,0.00,WeatherDisplay:10.37,2013-01-05 08:46:00,
2013-01-05 03:51:00,68.5,66.1,30.18,WNW,292,6.2,6.2,92,0.00,CLR,,0.00,WeatherDisplay:10.37,2013-01-05 08:51:00,
2013-01-05 03:56:00,68.5,66.1,30.18,NW,315,5.8,5.8,92,0.00,CLR,,0.00,WeatherDisplay:10.37,2013-01-05 08:56:00,
2013-01-05 04:01:00,68.5,66.1,30.21,North,0,5.8,5.8,92,0.00,CLR,,0.00,WeatherDisplay:10.37,2013-01-05 09:01:00,
2013-01-05 04:06:00,68.5,66.1,30.21,NNW,338,7.4,7.4,92,0.00,CLR,,0.00,WeatherDisplay:10.37,2013-01-05 09:06:00,
2013-01-05 04:11:00,68.4,65.9,30.21,NW,315,6.0,6.0,92,0.00,CLR,,0.00,WeatherDisplay:10.37,2013-01-05 09:11:00,
2013-01-05 04:16:00,68.4,65.9,30.18,NW,315,4.9,4.9,92,0.00,CLR,,0.00,WeatherDisplay:10.37,2013-01-05 09:16:00,
2013-01-05 04:21:00,68.4,65.9,30.18,NW,315,8.1,8.1,92,0.00,CLR,,0.00,WeatherDisplay:10.37,2013-01-05 09:21:00,
2013-01-05 04:26:00,68.4,65.9,30.18,North,0,5.8,5.8,92,0.00,CLR,,0.00,WeatherDisplay:10.37,2013-01-05 09:26:00,
2013-01-05 04:31:00,68.4,65.9,30.24,NNW,338,5.8,5.8,92,0.00,CLR,,0.00,WeatherDisplay:10.37,2013-01-05 09:31:00,
2013-01-05 04:36:00,68.4,65.9,30.24,North,0,7.6,7.6,92,0.00,CLR,,0.00,WeatherDisplay:10.37,2013-01-05 09:36:00,
2013-01-05 04:41:00,68.4,65.9,30.24,NW,315,5.8,5.8,92,0.00,CLR,,0.00,WeatherDisplay:10.37,2013-01-05 09:41:00,
2013-01-05 04:46:00,68.4,65.9,30.21,WNW,292,6.9,6.9,92,0.00,CLR,,0.00,WeatherDisplay:10.37,2013-01-05 09:46:00,
2013-01-05 04:51:00,68.2,65.8,30.21,NW,315,5.9,5.9,92,0.00,CLR,,0.00,WeatherDisplay:10.37,2013-01-05 09:51:00,
2013-01-05 04:56:00,68.2,65.8,30.21,NNW,338,5.8,5.8,92,0.00,CLR,,0.00,WeatherDisplay:10.37,2013-01-05 09:56:00,
2013-01-05 05:01:00,68.2,65.8,30.21,NNW,338,8.1,8.1,92,0.00,CLR,,0.00,WeatherDisplay:10.37,2013-01-05 10:01:00,
2013-01-05 05:06:00,68.2,65.8,30.21,NW,315,4.9,4.9,92,0.00,CLR,,0.00,WeatherDisplay:10.37,2013-01-05 10:06:00,
2013-01-05 05:12:00,68.2,65.8,30.21,NW,315,5.8,5.8,92,0.00,CLR,,0.00,WeatherDisplay:10.37,2013-01-05 10:12:00,
2013-01-05 05:17:00,68.2,65.8,30.18,WNW,292,8.1,8.1,92,0.00,CLR,,0.00,WeatherDisplay:10.37,2013-01-05 10:17:00,
2013-01-05 05:22:00,68.2,65.8,30.18,NW,315,5.8,5.8,92,0.00,CLR,,0.00,WeatherDisplay:10.37,2013-01-05 10:22:00,
2013-01-05 05:27:00,68.2,65.8,30.18,NW,315,6.0,6.0,92,0.00,CLR,,0.00,WeatherDisplay:10.37,2013-01-05 10:27:00,
2013-01-05 05:32:00,68.2,65.8,30.21,NNW,338,7.1,7.1,92,0.00,CLR,,0.00,WeatherDisplay:10.37,2013-01-05 10:32:00,
2013-01-05 05:37:00,68.2,66.1,30.21,NW,315,6.0,6.0,93,0.00,CLR,,0.00,WeatherDisplay:10.37,2013-01-05 10:37:00,
2013-01-05 05:42:00,68.4,66.3,30.21,NNW,338,5.8,5.8,93,0.00,CLR,,0.00,WeatherDisplay:10.37,2013-01-05 10:42:00,
2013-01-05 05:47:00,68.4,66.3,30.21,North,0,6.9,6.9,93,0.00,CLR,,0.00,WeatherDisplay:10.37,2013-01-05 10:47:00,
2013-01-05 05:53:00,68.4,66.3,30.21,North,0,8.1,8.1,93,0.00,CLR,,0.00,WeatherDisplay:10.37,2013-01-05 10:53:00,
2013-01-05 05:58:00,68.4,66.3,30.21,NW,315,8.1,8.1,93,0.00,CLR,,0.00,WeatherDisplay:10.37,2013-01-05 10:58:00,
2013-01-05 06:03:00,68.4,66.3,30.21,NW,315,6.9,6.9,93,0.00,CLR,,0.00,WeatherDisplay:10.37,2013-01-05 11:03:00,
2013-01-05 06:08:00,68.5,66.4,30.21,NW,315,4.9,4.9,93,0.00,CLR,,0.00,WeatherDisplay:10.37,2013-01-05 11:08:00,
2013-01-05 06:13:00,68.5,66.4,30.21,North,0,8.1,8.1,93,0.00,CLR,,0.00,WeatherDisplay:10.37,2013-01-05 11:13:00,
2013-01-05 06:18:00,68.5,66.4,30.21,NNW,338,5.8,5.8,93,0.00,CLR,,0.00,WeatherDisplay:10.37,2013-01-05 11:18:00,
2013-01-05 06:23:00,68.5,66.4,30.21,North,0,5.8,5.8,93,0.00,CLR,,0.00,WeatherDisplay:10.37,2013-01-05 11:23:00,
2013-01-05 06:29:00,68.5,66.4,30.21,NNW,338,5.8,5.8,93,0.00,CLR,,0.00,WeatherDisplay:10.37,2013-01-05 11:29:00,
2013-01-05 06:34:00,68.5,66.4,30.21,NNW,338,5.6,5.6,93,0.00,CLR,,0.00,WeatherDisplay:10.37,2013-01-05 11:34:00,
2013-01-05 06:39:00,68.7,66.6,30.21,North,0,5.8,5.8,93,0.00,CLR,,0.00,WeatherDisplay:10.37,2013-01-05 11:39:00,
2013-01-05 06:44:00,68.7,66.6,30.21,NW,315,4.6,4.6,93,0.00,CLR,,0.00,WeatherDisplay:10.37,2013-01-05 11:44:00,
2013-01-05 06:49:00,68.7,66.6,30.24,NW,315,4.6,4.6,93,0.00,CLR,,0.00,WeatherDisplay:10.37,2013-01-05 11:49:00,
2013-01-05 06:54:00,68.7,66.6,30.24,North,0,5.8,5.8,93,0.00,CLR,,0.00,WeatherDisplay:10.37,2013-01-05 11:54:00,
2013-01-05 07:00:00,68.7,66.6,30.24,NW,315,3.5,3.5,93,0.00,CLR,,0.00,WeatherDisplay:10.37,2013-01-05 12:00:00,
2013-01-05 07:05:00,68.8,66.7,30.24,NNW,341,3.0,6.0,93,0.00,CLR,,0.00,WeatherDisplay:10.37,2013-01-05 12:05:00,
2013-01-05 07:10:00,68.9,66.8,30.24,North,0,3.3,3.3,93,0.00,CLR,,0.00,WeatherDisplay:10.37,2013-01-05 12:10:00,
2013-01-05 07:15:00,68.9,66.8,30.24,North,0,4.6,4.6,93,0.00,CLR,,0.00,WeatherDisplay:10.37,2013-01-05 12:15:00,
2013-01-05 07:20:00,68.9,66.8,30.27,NNW,338,3.0,6.0,93,0.00,CLR,,0.00,WeatherDisplay:10.37,2013-01-05 12:20:00,
2013-01-05 07:25:00,68.9,66.8,30.27,NNW,338,4.6,4.6,93,0.00,CLR,,0.00,WeatherDisplay:10.37,2013-01-05 12:25:00,
2013-01-05 07:30:00,68.9,66.8,30.27,NW,315,4.6,4.6,93,0.00,CLR,,0.00,WeatherDisplay:10.37,2013-01-05 12:30:00,
2013-01-05 07:35:00,69.1,67.0,30.27,North,0,3.5,3.5,93,0.00,CLR,,0.00,WeatherDisplay:10.37,2013-01-05 12:35:00,
2013-01-05 07:40:00,68.9,66.8,30.27,North,0,3.8,3.8,93,0.00,CLR,,0.00,WeatherDisplay:10.37,2013-01-05 12:40:00,
2013-01-05 07:45:00,68.9,66.8,30.27,NW,319,2.0,5.0,93,0.00,CLR,,0.00,WeatherDisplay:10.37,2013-01-05 12:45:00,
2013-01-05 07:51:00,68.9,66.8,30.27,NW,315,4.6,4.6,93,0.00,CLR,,0.00,WeatherDisplay:10.37,2013-01-05 12:51:00,
2013-01-05 07:56:00,68.9,66.8,30.27,NW,315,4.6,4.6,93,0.00,CLR,,0.00,WeatherDisplay:10.37,2013-01-05 12:56:00,
2013-01-05 08:01:00,68.9,66.8,30.27,NW,315,4.6,4.6,93,0.00,CLR,,0.00,WeatherDisplay:10.37,2013-01-05 13:01:00,
2013-01-05 08:06:00,68.9,66.8,30.27,West,270,3.8,3.8,93,0.01,RA,,0.01,WeatherDisplay:10.37,2013-01-05 13:06:00,
2013-01-05 08:12:00,68.9,66.8,30.27,North,0,4.6,4.6,93,0.01,RA,,0.01,WeatherDisplay:10.37,2013-01-05 13:12:00,
2013-01-05 08:17:00,68.9,66.8,30.27,NW,315,5.8,5.8,93,0.01,,,0.01,WeatherDisplay:10.37,2013-01-05 13:17:00,
2013-01-05 08:22:00,69.1,67.0,30.27,NNW,338,3.5,3.5,93,0.01,CLR,,0.01,WeatherDisplay:10.37,2013-01-05 13:22:00,
2013-01-05 08:27:00,69.1,67.0,30.27,North,0,5.4,5.4,93,0.01,CLR,,0.01,WeatherDisplay:10.37,2013-01-05 13:27:00,
2013-01-05 08:32:00,69.6,67.5,30.27,North,0,4.3,4.3,93,0.01,CLR,,0.01,WeatherDisplay:10.37,2013-01-05 13:32:00,
2013-01-05 08:37:00,69.1,67.0,30.27,NW,315,3.8,4.0,93,0.02,RA,,0.02,WeatherDisplay:10.37,2013-01-05 13:37:00,
2013-01-05 08:42:00,69.3,67.1,30.27,NW,315,4.6,4.6,93,0.03,RA,,0.03,WeatherDisplay:10.37,2013-01-05 13:42:00,
2013-01-05 08:48:00,69.1,67.0,30.27,NW,315,4.0,4.0,93,0.03,RA,,0.03,WeatherDisplay:10.37,2013-01-05 13:48:00,
2013-01-05 08:53:00,69.4,67.3,30.27,NW,315,3.6,3.6,93,0.03,CLR,,0.03,WeatherDisplay:10.37,2013-01-05 13:53:00,
2013-01-05 08:58:00,69.6,67.5,30.27,NW,315,4.9,4.9,93,0.03,CLR,,0.03,WeatherDisplay:10.37,2013-01-05 13:58:00,
2013-01-05 09:03:00,69.6,67.5,30.27,WNW,292,4.3,4.3,93,0.03,CLR,,0.03,WeatherDisplay:10.37,2013-01-05 14:03:00,
2013-01-05 09:08:00,69.6,67.5,30.27,WNW,292,4.7,4.7,93,0.02,CLR,,0.03,WeatherDisplay:10.37,2013-01-05 14:08:00,
2013-01-05 09:13:00,69.6,67.5,30.27,NW,315,4.3,4.3,93,0.02,CLR,,0.03,WeatherDisplay:10.37,2013-01-05 14:13:00,
2013-01-05 09:18:00,69.4,67.3,30.24,WNW,292,6.9,6.9,93,0.02,CLR,,0.03,WeatherDisplay:10.37,2013-01-05 14:18:00,
2013-01-05 09:24:00,69.4,67.3,30.24,WNW,292,4.9,4.9,93,0.02,CLR,,0.03,WeatherDisplay:10.37,2013-01-05 14:24:00,
2013-01-05 09:29:00,69.4,67.6,30.24,NW,315,5.8,5.8,94,0.02,CLR,,0.03,WeatherDisplay:10.37,2013-01-05 14:29:00,
2013-01-05 09:34:00,69.6,67.8,30.27,NW,315,5.6,5.6,94,0.01,CLR,,0.03,WeatherDisplay:10.37,2013-01-05 14:34:00,
2013-01-05 09:39:00,69.8,67.7,30.27,NW,315,5.8,5.8,93,0.01,CLR,,0.03,WeatherDisplay:10.37,2013-01-05 14:39:00,
2013-01-05 09:45:00,69.8,67.7,30.27,NW,315,5.8,5.8,93,0.00,CLR,,0.03,WeatherDisplay:10.37,2013-01-05 14:45:00,
2013-01-05 09:50:00,70.0,67.9,30.27,West,270,4.6,4.6,93,0.00,CLR,,0.03,WeatherDisplay:10.37,2013-01-05 14:50:00,
2013-01-05 09:55:00,70.0,67.9,30.27,NW,304,5.0,8.0,93,0.00,RA,,0.03,WeatherDisplay:10.37,2013-01-05 14:55:00,
2013-01-05 10:00:00,70.2,68.0,30.27,NW,315,5.8,5.8,93,0.00,CLR,,0.03,WeatherDisplay:10.37,2013-01-05 15:00:00,
2013-01-05 10:05:00,70.2,68.0,30.27,NNW,338,5.8,5.8,93,0.00,CLR,,0.03,WeatherDisplay:10.37,2013-01-05 15:05:00,
2013-01-05 10:10:00,70.3,68.2,30.27,West,270,4.0,4.0,93,0.00,CLR,,0.03,WeatherDisplay:10.37,2013-01-05 15:10:00,
2013-01-05 10:15:00,70.3,68.2,30.27,NNW,338,3.5,3.5,93,0.00,CLR,,0.03,WeatherDisplay:10.37,2013-01-05 15:15:00,
2013-01-05 10:20:00,70.3,68.2,30.27,NNW,338,2.9,2.9,93,0.00,CLR,,0.03,WeatherDisplay:10.37,2013-01-05 15:20:00,
2013-01-05 10:26:00,70.5,68.4,30.27,NNW,338,3.5,3.5,93,0.01,RA,,0.04,WeatherDisplay:10.37,2013-01-05 15:26:00,
2013-01-05 10:31:00,70.5,68.4,30.27,NNW,327,2.0,3.0,93,0.00,RA,,0.04,WeatherDisplay:10.37,2013-01-05 15:31:00,
2013-01-05 10:36:00,70.5,68.4,30.24,North,0,2.3,2.3,93,0.02,RA,,0.05,WeatherDisplay:10.37,2013-01-05 15:36:00,
2013-01-05 10:41:00,70.5,68.7,30.24,North,0,2.3,2.3,94,0.03,RA,,0.06,WeatherDisplay:10.37,2013-01-05 15:41:00,
2013-01-05 10:46:00,70.5,68.7,30.27,NNE,22,2.3,0.0,94,0.03,RA,,0.06,WeatherDisplay:10.37,2013-01-05 15:46:00,
2013-01-05 10:52:00,70.9,69.1,30.27,NW,315,2.6,0.0,94,0.03,,,0.06,WeatherDisplay:10.37,2013-01-05 15:52:00,
2013-01-05 10:57:00,70.9,69.1,30.27,WNW,292,2.3,2.3,94,0.03,CLR,,0.06,WeatherDisplay:10.37,2013-01-05 15:57:00,
2013-01-05 11:02:00,70.9,69.1,30.27,NW,315,2.3,0.0,94,0.04,RA,,0.07,WeatherDisplay:10.37,2013-01-05 16:02:00,
2013-01-05 11:07:00,70.5,68.7,30.27,ENE,68,3.8,3.8,94,0.05,RA,,0.08,WeatherDisplay:10.37,2013-01-05 16:07:00,
2013-01-05 11:12:00,70.9,69.1,30.27,NNE,22,4.7,4.7,94,0.07,RA,,0.10,WeatherDisplay:10.37,2013-01-05 16:12:00,
2013-01-05 11:17:00,70.9,69.1,30.27,North,0,4.6,4.6,94,0.07,RA,,0.10,WeatherDisplay:10.37,2013-01-05 16:17:00,
2013-01-05 11:22:00,71.2,69.4,30.27,North,0,2.6,2.6,94,0.07,,,0.10,WeatherDisplay:10.37,2013-01-05 16:22:00,
2013-01-05 11:27:00,71.4,69.6,30.27,North,0,3.5,3.5,94,0.07,RA,,0.11,WeatherDisplay:10.37,2013-01-05 16:27:00,
2013-01-05 11:32:00,71.4,69.6,30.27,ENE,68,2.9,0.0,94,0.07,RA,,0.11,WeatherDisplay:10.37,2013-01-05 16:32:00,
2013-01-05 11:37:00,71.6,69.8,30.27,NW,315,3.5,3.5,94,0.06,CLR,,0.11,WeatherDisplay:10.37,2013-01-05 16:37:00,
2013-01-05 11:42:00,71.6,69.8,30.27,NNE,22,5.8,5.8,94,0.05,CLR,,0.11,WeatherDisplay:10.37,2013-01-05 16:42:00,
2013-01-05 11:47:00,71.8,70.0,30.27,NE,45,4.6,4.6,94,0.05,CLR,,0.11,WeatherDisplay:10.37,2013-01-05 16:47:00,
2013-01-05 11:53:00,71.8,70.0,30.27,North,0,4.7,4.7,94,0.05,CLR,,0.11,WeatherDisplay:10.37,2013-01-05 16:53:00,
2013-01-05 11:58:00,71.8,70.0,30.27,NNE,22,4.6,4.6,94,0.05,CLR,,0.11,WeatherDisplay:10.37,2013-01-05 16:58:00,
2013-01-05 12:03:00,71.8,70.0,30.27,NNW,338,5.8,5.8,94,0.04,CLR,,0.11,WeatherDisplay:10.37,2013-01-05 17:03:00,
2013-01-05 12:08:00,72.0,70.1,30.27,NNW,338,4.6,4.6,94,0.03,CLR,,0.11,WeatherDisplay:10.37,2013-01-05 17:08:00,
2013-01-05 12:13:00,72.0,70.1,30.27,ENE,68,2.4,3.1,94,0.01,CLR,,0.11,WeatherDisplay:10.37,2013-01-05 17:13:00,
2013-01-05 12:19:00,72.0,70.1,30.27,North,0,3.5,3.5,94,0.01,CLR,,0.11,WeatherDisplay:10.37,2013-01-05 17:19:00,
2013-01-05 12:24:00,72.0,70.1,30.27,NNW,338,5.8,5.8,94,0.00,CLR,,0.11,WeatherDisplay:10.37,2013-01-05 17:24:00,
2013-01-05 12:29:00,71.8,70.0,30.27,North,0,3.6,3.6,94,0.00,CLR,,0.11,WeatherDisplay:10.37,2013-01-05 17:29:00,
2013-01-05 12:34:00,71.8,70.0,30.24,North,0,3.5,3.5,94,0.00,CLR,,0.11,WeatherDisplay:10.37,2013-01-05 17:34:00,
2013-01-05 12:39:00,71.8,70.0,30.24,NNE,22,4.6,4.6,94,0.00,CLR,,0.11,WeatherDisplay:10.37,2013-01-05 17:39:00,
2013-01-05 12:44:00,71.8,70.0,30.24,NNW,338,5.8,5.8,94,0.00,CLR,,0.11,WeatherDisplay:10.37,2013-01-05 17:44:00,
2013-01-05 12:50:00,71.8,70.0,30.21,North,0,4.7,4.7,94,0.00,CLR,,0.11,WeatherDisplay:10.37,2013-01-05 17:50:00,
2013-01-05 12:55:00,71.8,70.0,30.21,ENE,68,6.2,6.2,94,0.00,CLR,,0.11,WeatherDisplay:10.37,2013-01-05 17:55:00,
2013-01-05 13:00:00,71.6,69.8,30.21,NW,315,6.0,6.0,94,0.00,CLR,,0.11,WeatherDisplay:10.37,2013-01-05 18:00:00,
2013-01-05 13:05:00,71.6,69.8,30.21,North,0,5.8,5.8,94,0.00,CLR,,0.11,WeatherDisplay:10.37,2013-01-05 18:05:00,
2013-01-05 13:10:00,71.6,69.8,30.21,NE,45,6.9,6.9,94,0.00,CLR,,0.11,WeatherDisplay:10.37,2013-01-05 18:10:00,
2013-01-05 13:15:00,71.6,69.8,30.21,North,0,5.9,5.9,94,0.00,CLR,,0.11,WeatherDisplay:10.37,2013-01-05 18:15:00,
2013-01-05 13:20:00,71.6,69.8,30.21,East,90,5.4,5.4,94,0.00,CLR,,0.11,WeatherDisplay:10.37,2013-01-05 18:20:00,
2013-01-05 13:25:00,71.8,70.0,30.21,NW,315,6.9,6.9,94,0.00,CLR,,0.11,WeatherDisplay:10.37,2013-01-05 18:25:00,
2013-01-05 13:31:00,72.0,70.1,30.21,North,0,5.8,5.8,94,0.00,CLR,,0.11,WeatherDisplay:10.37,2013-01-05 18:31:00,
2013-01-05 13:36:00,72.1,70.3,30.21,North,0,5.8,5.8,94,0.00,CLR,,0.11,WeatherDisplay:10.37,2013-01-05 18:36:00,
2013-01-05 13:41:00,72.3,70.5,30.21,North,0,6.9,6.9,94,0.00,CLR,,0.11,WeatherDisplay:10.37,2013-01-05 18:41:00,
2013-01-05 13:46:00,72.3,70.2,30.21,North,0,3.5,3.5,93,0.00,CLR,,0.11,WeatherDisplay:10.37,2013-01-05 18:46:00,
2013-01-05 13:51:00,72.3,70.5,30.21,NNW,338,4.6,4.6,94,0.00,CLR,,0.11,WeatherDisplay:10.37,2013-01-05 18:51:00,
2013-01-05 13:56:00,72.5,70.7,30.21,North,0,5.6,5.6,94,0.00,CLR,,0.11,WeatherDisplay:10.37,2013-01-05 18:56:00,
2013-01-05 14:02:00,72.5,70.4,30.21,NW,315,5.8,5.8,93,0.00,CLR,,0.11,WeatherDisplay:10.37,2013-01-05 19:02:00,
2013-01-05 14:07:00,72.7,70.5,30.21,North,0,4.6,4.6,93,0.00,CLR,,0.11,WeatherDisplay:10.37,2013-01-05 19:07:00,
2013-01-05 14:12:00,72.7,70.5,30.21,NW,315,4.6,4.6,93,0.00,CLR,,0.11,WeatherDisplay:10.37,2013-01-05 19:12:00,
2013-01-05 14:17:00,72.9,70.7,30.21,North,0,4.6,4.6,93,0.00,CLR,,0.11,WeatherDisplay:10.37,2013-01-05 19:17:00,
2013-01-05 14:22:00,72.9,70.7,30.21,NNW,338,3.5,3.5,93,0.00,CLR,,0.11,WeatherDisplay:10.37,2013-01-05 19:22:00,
2013-01-05 14:27:00,72.9,70.4,30.21,North,0,6.9,6.9,92,0.00,CLR,,0.11,WeatherDisplay:10.37,2013-01-05 19:27:00,
2013-01-05 14:32:00,72.9,70.4,30.18,North,0,2.6,2.6,92,0.00,CLR,,0.11,WeatherDisplay:10.37,2013-01-05 19:32:00,
2013-01-05 14:37:00,72.9,70.4,30.18,North,0,4.3,4.3,92,0.00,CLR,,0.11,WeatherDisplay:10.37,2013-01-05 19:37:00,
2013-01-05 14:43:00,72.9,70.4,30.18,North,0,4.6,4.6,92,0.00,CLR,,0.11,WeatherDisplay:10.37,2013-01-05 19:43:00,
2013-01-05 14:48:00,72.9,70.4,30.21,NE,45,3.5,3.5,92,0.00,CLR,,0.11,WeatherDisplay:10.37,2013-01-05 19:48:00,
2013-01-05 14:53:00,73.0,70.6,30.21,NW,315,5.9,5.9,92,0.00,CLR,,0.11,WeatherDisplay:10.37,2013-01-05 19:53:00,
2013-01-05 14:58:00,73.2,70.4,30.21,North,0,4.6,4.6,91,0.00,CLR,,0.11,WeatherDisplay:10.37,2013-01-05 19:58:00,
2013-01-05 15:03:00,73.2,70.4,30.21,NNW,338,5.8,5.8,91,0.00,CLR,,0.11,WeatherDisplay:10.37,2013-01-05 20:03:00,
2013-01-05 15:08:00,73.2,70.4,30.21,North,0,5.8,5.8,91,0.00,CLR,,0.11,WeatherDisplay:10.37,2013-01-05 20:08:00,
2013-01-05 15:13:00,73.2,70.4,30.21,NNE,22,4.6,4.6,91,0.00,CLR,,0.11,WeatherDisplay:10.37,2013-01-05 20:13:00,
2013-01-05 15:19:00,73.2,70.4,30.21,North,0,4.7,4.7,91,0.00,CLR,,0.11,WeatherDisplay:10.37,2013-01-05 20:19:00,
2013-01-05 15:24:00,73.4,70.3,30.21,NW,315,4.6,4.6,90,0.00,CLR,,0.11,WeatherDisplay:10.37,2013-01-05 20:24:00,
2013-01-05 15:29:00,73.6,70.5,30.21,NW,315,5.4,5.4,90,0.00,CLR,,0.11,WeatherDisplay:10.37,2013-01-05 20:29:00,
2013-01-05 15:34:00,73.9,70.8,30.21,NNW,338,4.0,4.0,90,0.00,CLR,,0.11,WeatherDisplay:10.37,2013-01-05 20:34:00,
2013-01-05 15:40:00,74.3,70.8,30.21,North,0,5.4,5.4,89,0.00,CLR,,0.11,WeatherDisplay:10.37,2013-01-05 20:40:00,
2013-01-05 15:45:00,74.7,71.2,30.21,North,0,4.6,4.6,89,0.00,CLR,,0.11,WeatherDisplay:10.37,2013-01-05 20:45:00,
2013-01-05 15:50:00,75.0,71.2,30.21,NW,315,3.8,3.8,88,0.00,CLR,,0.11,WeatherDisplay:10.37,2013-01-05 20:50:00,
2013-01-05 15:55:00,75.0,71.2,30.21,NNW,339,3.0,6.0,88,0.00,RA,,0.11,WeatherDisplay:10.37,2013-01-05 20:55:00,
2013-01-05 16:00:00,75.4,71.2,30.21,North,0,3.5,3.5,87,0.00,CLR,,0.11,WeatherDisplay:10.37,2013-01-05 21:00:00,
2013-01-05 16:05:00,75.6,71.1,30.21,North,0,3.5,3.5,86,0.00,CLR,,0.11,WeatherDisplay:10.37,2013-01-05 21:05:00,
2013-01-05 16:10:00,75.6,71.1,30.21,NNW,328,2.0,5.0,86,0.00,RA,,0.11,WeatherDisplay:10.37,2013-01-05 21:10:00,
2013-01-05 16:15:00,75.7,70.9,30.21,North,0,2.3,2.3,85,0.00,CLR,,0.11,WeatherDisplay:10.37,2013-01-05 21:15:00,
2013-01-05 16:20:00,75.9,71.1,30.21,NW,315,2.4,2.4,85,0.00,CLR,,0.11,WeatherDisplay:10.37,2013-01-05 21:20:00,
2013-01-05 16:25:00,76.3,71.1,30.21,NNW,338,1.2,0.0,84,0.00,CLR,,0.11,WeatherDisplay:10.37,2013-01-05 21:25:00,
2013-01-05 16:31:00,76.5,70.9,30.21,NE,45,2.3,0.0,83,0.00,CLR,,0.11,WeatherDisplay:10.37,2013-01-05 21:31:00,
2013-01-05 16:36:00,76.8,71.3,30.21,NW,315,0.0,0.0,83,0.00,CLR,,0.11,WeatherDisplay:10.37,2013-01-05 21:36:00,
2013-01-05 16:41:00,76.8,71.3,30.21,North,0,3.5,3.5,83,0.00,CLR,,0.11,WeatherDisplay:10.37,2013-01-05 21:41:00,
2013-01-05 16:46:00,76.5,70.6,30.21,WNW,292,3.5,3.5,82,0.00,CLR,,0.11,WeatherDisplay:10.37,2013-01-05 21:46:00,
2013-01-05 16:51:00,76.3,70.4,30.21,North,0,3.5,0.0,82,0.00,CLR,,0.11,WeatherDisplay:10.37,2013-01-05 21:51:00,
2013-01-05 16:57:00,76.5,70.6,30.21,NNE,22,2.3,2.3,82,0.00,CLR,,0.11,WeatherDisplay:10.37,2013-01-05 21:57:00,
2013-01-05 17:02:00,76.3,70.0,30.21,NNE,22,2.3,0.0,81,0.00,CLR,,0.11,WeatherDisplay:10.37,2013-01-05 22:02:00,
2013-01-05 17:07:00,76.3,70.0,30.21,NNE,22,1.2,0.0,81,0.00,CLR,,0.11,WeatherDisplay:10.37,2013-01-05 22:07:00,
2013-01-05 17:12:00,76.3,70.0,30.21,North,0,2.3,2.3,81,0.00,CLR,,0.11,WeatherDisplay:10.37,2013-01-05 22:12:00,
2013-01-05 17:17:00,75.9,69.7,30.21,ENE,68,3.5,3.5,81,0.00,CLR,,0.11,WeatherDisplay:10.37,2013-01-05 22:17:00,
2013-01-05 17:22:00,75.6,69.3,30.21,North,0,4.0,4.0,81,0.00,CLR,,0.11,WeatherDisplay:10.37,2013-01-05 22:22:00,
2013-01-05 17:28:00,75.2,69.0,30.21,North,0,1.2,0.0,81,0.00,CLR,,0.11,WeatherDisplay:10.37,2013-01-05 22:28:00,
2013-01-05 17:33:00,75.0,68.8,30.21,NNE,22,3.5,3.5,81,0.00,CLR,,0.11,WeatherDisplay:10.37,2013-01-05 22:33:00,
2013-01-05 17:38:00,74.8,68.6,30.21,NNW,338,2.3,2.3,81,0.00,CLR,,0.11,WeatherDisplay:10.37,2013-01-05 22:38:00,
2013-01-05 17:43:00,74.7,68.4,30.21,West,270,2.3,0.0,81,0.00,CLR,,0.11,WeatherDisplay:10.37,2013-01-05 22:43:00,
2013-01-05 17:48:00,74.7,68.8,30.21,ENE,68,3.5,3.5,82,0.00,CLR,,0.11,WeatherDisplay:10.37,2013-01-05 22:48:00,
2013-01-05 17:53:00,74.7,68.4,30.21,ENE,68,2.2,2.2,81,0.00,CLR,,0.11,WeatherDisplay:10.37,2013-01-05 22:53:00,
2013-01-05 17:58:00,74.7,68.4,30.21,North,0,0.9,0.0,81,0.00,CLR,,0.11,WeatherDisplay:10.37,2013-01-05 22:58:00,
2013-01-05 18:03:00,74.7,68.4,30.21,NNE,22,2.3,0.0,81,0.00,CLR,,0.11,WeatherDisplay:10.37,2013-01-05 23:03:00,
2013-01-05 18:09:00,74.5,68.3,30.21,NNE,22,2.3,2.3,81,0.00,CLR,,0.11,WeatherDisplay:10.37,2013-01-05 23:09:00,
2013-01-05 18:14:00,74.1,68.3,30.21,North,0,2.3,0.0,82,0.00,CLR,,0.11,WeatherDisplay:10.37,2013-01-05 23:14:00,
2013-01-05 18:19:00,73.9,68.1,30.21,North,0,2.4,2.4,82,0.00,CLR,,0.11,WeatherDisplay:10.37,2013-01-05 23:19:00,
2013-01-05 18:24:00,73.9,68.1,30.21,North,0,1.2,0.0,82,0.00,CLR,,0.11,WeatherDisplay:10.37,2013-01-05 23:24:00,
2013-01-05 18:29:00,74.1,68.3,30.21,NNE,22,3.5,0.0,82,0.00,CLR,,0.11,WeatherDisplay:10.37,2013-01-05 23:29:00,
2013-01-05 18:34:00,74.5,68.6,30.21,NNW,338,2.0,0.0,82,0.00,CLR,,0.11,WeatherDisplay:10.37,2013-01-05 23:34:00,
2013-01-05 18:39:00,74.7,68.8,30.21,NE,45,0.0,0.0,82,0.00,CLR,,0.11,WeatherDisplay:10.37,2013-01-05 23:39:00,
2013-01-05 18:44:00,74.7,68.8,30.21,NE,45,2.4,0.0,82,0.00,CLR,,0.11,WeatherDisplay:10.37,2013-01-05 23:44:00,
2013-01-05 18:49:00,74.5,68.6,30.21,ENE,68,4.6,0.0,82,0.00,CLR,,0.11,WeatherDisplay:10.37,2013-01-05 23:49:00,
2013-01-05 18:54:00,74.1,68.6,30.21,NNE,22,2.4,2.4,83,0.00,CLR,,0.11,WeatherDisplay:10.37,2013-01-05 23:54:00,
2013-01-05 19:00:00,73.9,68.4,30.21,NNW,338,0.0,0.0,83,0.00,CLR,,0.11,WeatherDisplay:10.37,2013-01-06 00:00:00,
2013-01-05 19:05:00,73.8,68.6,30.21,North,0,0.0,0.0,84,0.00,CLR,,0.11,WeatherDisplay:10.37,2013-01-06 00:05:00,
2013-01-05 19:10:00,73.8,68.6,30.21,NE,45,0.0,0.0,84,0.00,CLR,,0.11,WeatherDisplay:10.37,2013-01-06 00:10:00,
2013-01-05 19:15:00,73.6,68.4,30.21,North,0,0.0,0.0,84,0.00,CLR,,0.11,WeatherDisplay:10.37,2013-01-06 00:15:00,
2013-01-05 19:20:00,73.6,68.4,30.18,North,0,0.0,0.0,84,0.00,CLR,,0.11,WeatherDisplay:10.37,2013-01-06 00:20:00,
2013-01-05 19:25:00,73.4,68.6,30.18,North,0,2.3,0.0,85,0.00,CLR,,0.11,WeatherDisplay:10.37,2013-01-06 00:25:00,
2013-01-05 19:30:00,73.4,68.6,30.18,NNW,338,2.3,0.0,85,0.00,CLR,,0.11,WeatherDisplay:10.37,2013-01-06 00:30:00,
2013-01-05 19:35:00,73.4,68.6,30.21,North,0,2.3,2.3,85,0.00,CLR,,0.11,WeatherDisplay:10.37,2013-01-06 00:35:00,
2013-01-05 19:40:00,73.2,68.8,30.21,North,0,1.2,0.0,86,0.00,CLR,,0.11,WeatherDisplay:10.37,2013-01-06 00:40:00,
2013-01-05 19:45:00,73.2,68.8,30.21,WNW,292,2.6,2.6,86,0.00,CLR,,0.11,WeatherDisplay:10.37,2013-01-06 00:45:00,
2013-01-05 19:50:00,73.0,68.6,30.24,NW,315,1.2,1.4,86,0.00,CLR,,0.11,WeatherDisplay:10.37,2013-01-06 00:50:00,
2013-01-05 19:55:00,72.9,68.4,30.24,NW,315,3.5,3.5,86,0.00,CLR,,0.11,WeatherDisplay:10.37,2013-01-06 00:55:00,
2013-01-05 20:00:00,72.9,68.4,30.24,WNW,292,4.3,4.3,86,0.00,CLR,,0.11,WeatherDisplay:10.37,2013-01-06 01:00:00,
2013-01-05 20:05:00,72.7,68.2,30.24,NW,315,3.5,3.5,86,0.00,CLR,,0.11,WeatherDisplay:10.37,2013-01-06 01:05:00,
2013-01-05 20:10:00,72.5,68.1,30.24,North,0,2.6,2.6,86,0.00,CLR,,0.11,WeatherDisplay:10.37,2013-01-06 01:10:00,
2013-01-05 20:15:00,72.5,68.1,30.24,NW,315,2.3,0.0,86,0.00,CLR,,0.11,WeatherDisplay:10.37,2013-01-06 01:15:00,
2013-01-05 20:20:00,72.3,67.9,30.27,NW,315,0.0,0.0,86,0.00,CLR,,0.11,WeatherDisplay:10.37,2013-01-06 01:20:00,
2013-01-05 20:25:00,72.3,67.9,30.27,NW,315,0.0,0.0,86,0.00,CLR,,0.11,WeatherDisplay:10.37,2013-01-06 01:25:00,
2013-01-05 20:31:00,72.1,67.7,30.27,NW,311,0.0,0.0,86,0.00,RA,,0.11,WeatherDisplay:10.37,2013-01-06 01:31:00,
2013-01-05 20:36:00,72.0,67.9,30.27,WNW,292,2.3,2.3,87,0.00,CLR,,0.11,WeatherDisplay:10.37,2013-01-06 01:36:00,
2013-01-05 20:41:00,71.8,67.7,30.27,WNW,292,2.3,2.3,87,0.00,CLR,,0.11,WeatherDisplay:10.37,2013-01-06 01:41:00,
2013-01-05 20:46:00,71.8,67.7,30.27,NNW,338,1.2,0.0,87,0.00,CLR,,0.11,WeatherDisplay:10.37,2013-01-06 01:46:00,
2013-01-05 20:51:00,71.8,67.7,30.27,WNW,292,0.0,0.0,87,0.00,CLR,,0.11,WeatherDisplay:10.37,2013-01-06 01:51:00,
2013-01-05 20:56:00,71.6,67.5,30.27,NW,315,2.3,2.3,87,0.00,CLR,,0.11,WeatherDisplay:10.37,2013-01-06 01:56:00,
2013-01-05 21:01:00,71.6,67.5,30.27,NNW,338,3.1,3.1,87,0.00,CLR,,0.11,WeatherDisplay:10.37,2013-01-06 02:01:00,
2013-01-05 21:06:00,71.6,67.5,30.27,NW,315,2.3,0.0,87,0.00,CLR,,0.11,WeatherDisplay:10.37,2013-01-06 02:06:00,
2013-01-05 21:11:00,71.6,67.9,30.27,NW,315,0.0,0.0,88,0.00,CLR,,0.11,WeatherDisplay:10.37,2013-01-06 02:11:00,
2013-01-05 21:16:00,71.6,67.9,30.27,NW,315,0.0,0.0,88,0.00,CLR,,0.11,WeatherDisplay:10.37,2013-01-06 02:16:00,
2013-01-05 21:21:00,71.4,67.7,30.27,NW,315,0.0,0.0,88,0.00,CLR,,0.11,WeatherDisplay:10.37,2013-01-06 02:21:00,
2013-01-05 21:26:00,71.4,67.7,30.27,WNW,292,0.0,0.0,88,0.00,CLR,,0.11,WeatherDisplay:10.37,2013-01-06 02:26:00,
2013-01-05 21:31:00,71.4,68.0,30.27,NNE,22,0.9,0.0,89,0.00,CLR,,0.11,WeatherDisplay:10.37,2013-01-06 02:31:00,
2013-01-05 21:36:00,71.4,68.0,30.27,NW,315,0.0,0.0,89,0.00,CLR,,0.11,WeatherDisplay:10.37,2013-01-06 02:36:00,
2013-01-05 21:42:00,71.4,68.0,30.27,North,0,1.2,0.0,89,0.00,CLR,,0.11,WeatherDisplay:10.37,2013-01-06 02:42:00,
2013-01-05 21:47:00,71.4,68.0,30.27,North,0,0.0,0.0,89,0.00,CLR,,0.11,WeatherDisplay:10.37,2013-01-06 02:47:00,
2013-01-05 21:52:00,71.4,68.0,30.27,North,0,0.0,0.0,89,0.00,CLR,,0.11,WeatherDisplay:10.37,2013-01-06 02:52:00,
2013-01-05 21:57:00,71.4,68.0,30.27,North,0,0.0,0.0,89,0.00,CLR,,0.11,WeatherDisplay:10.37,2013-01-06 02:57:00,
2013-01-05 22:02:00,71.2,67.8,30.24,North,0,0.0,0.0,89,0.00,CLR,,0.11,WeatherDisplay:10.37,2013-01-06 03:02:00,
2013-01-05 22:08:00,71.2,67.8,30.24,North,0,0.0,0.0,89,0.00,CLR,,0.11,WeatherDisplay:10.37,2013-01-06 03:08:00,
2013-01-05 22:13:00,71.1,67.7,30.24,North,0,0.0,0.0,89,0.00,CLR,,0.11,WeatherDisplay:10.37,2013-01-06 03:13:00,
2013-01-05 22:18:00,71.1,67.7,30.27,North,0,0.0,0.0,89,0.00,CLR,,0.11,WeatherDisplay:10.37,2013-01-06 03:18:00,
2013-01-05 22:23:00,71.1,67.7,30.27,North,0,0.0,0.0,89,0.00,CLR,,0.11,WeatherDisplay:10.37,2013-01-06 03:23:00,
2013-01-05 22:28:00,71.1,67.7,30.27,North,0,1.2,0.0,89,0.00,CLR,,0.11,WeatherDisplay:10.37,2013-01-06 03:28:00,
2013-01-05 22:33:00,70.9,67.5,30.27,North,0,0.0,0.0,89,0.00,CLR,,0.11,WeatherDisplay:10.37,2013-01-06 03:33:00,
2013-01-05 22:39:00,70.9,67.5,30.27,North,0,0.0,0.0,89,0.00,CLR,,0.11,WeatherDisplay:10.37,2013-01-06 03:39:00,
2013-01-05 22:44:00,70.9,67.5,30.27,West,270,0.0,0.0,89,0.00,CLR,,0.11,WeatherDisplay:10.37,2013-01-06 03:44:00,
2013-01-05 22:49:00,70.9,67.5,30.24,West,270,0.0,0.0,89,0.00,CLR,,0.11,WeatherDisplay:10.37,2013-01-06 03:49:00,
2013-01-05 22:54:00,70.9,67.5,30.24,West,270,0.0,0.0,89,0.00,CLR,,0.11,WeatherDisplay:10.37,2013-01-06 03:54:00,
2013-01-05 22:59:00,70.9,67.5,30.24,West,270,0.0,0.0,89,0.00,CLR,,0.11,WeatherDisplay:10.37,2013-01-06 03:59:00,
2013-01-05 23:05:00,70.5,67.1,30.24,West,270,0.0,0.0,89,0.00,CLR,,0.11,WeatherDisplay:10.37,2013-01-06 04:05:00,
2013-01-05 23:10:00,70.5,67.1,30.24,West,270,0.0,0.0,89,0.00,RA,,0.11,WeatherDisplay:10.37,2013-01-06 04:10:00,
2013-01-05 23:15:00,70.3,66.9,30.24,West,270,0.0,0.0,89,0.00,CLR,,0.11,WeatherDisplay:10.37,2013-01-06 04:15:00,
2013-01-05 23:20:00,70.3,66.9,30.21,West,270,0.0,0.0,89,0.00,RA,,0.11,WeatherDisplay:10.37,2013-01-06 04:20:00,
2013-01-05 23:25:00,70.3,66.9,30.21,West,270,0.0,0.0,89,0.00,CLR,,0.11,WeatherDisplay:10.37,2013-01-06 04:25:00,
2013-01-05 23:31:00,70.3,66.9,30.21,West,270,0.0,0.0,89,0.00,RA,,0.11,WeatherDisplay:10.37,2013-01-06 04:31:00,
2013-01-05 23:36:00,70.2,66.8,30.21,West,270,0.0,0.0,89,0.00,CLR,,0.11,WeatherDisplay:10.37,2013-01-06 04:36:00,
2013-01-05 23:41:00,70.2,66.8,30.21,West,270,0.0,0.0,89,0.00,CLR,,0.11,WeatherDisplay:10.37,2013-01-06 04:41:00,
2013-01-05 23:46:00,70.2,66.8,30.21,NW,315,0.0,0.0,89,0.00,CLR,,0.11,WeatherDisplay:10.37,2013-01-06 04:46:00,
2013-01-05 23:51:00,70.2,66.4,30.21,North,0,0.0,0.0,88,0.00,CLR,,0.11,WeatherDisplay:10.37,2013-01-06 04:51:00,
2013-01-05 23:57:00,70.0,66.3,30.21,North,0,0.0,0.0,88,0.00,CLR,,0.11,WeatherDisplay:10.37,2013-01-06 04:57:00,